Time;durP1;ratioP1;P1;durP2;ratioP2;P2;SDS_P1;SDS_P2;PMS_P1;PMS_P2;Temp;Humidity;BMP_temperature;BMP_pressure;BME280_temperature;BME280_humidity;BME280_pressure;Samples;Min_cycle;Max_cycle;Signal;HPM_P1;HPM_P2
2022/09/01 00:01:45;;;;;;;1.38;1.10;;;;;;;;;;5086990;28;20437;-79
2022/09/01 00:04:18;;;;;;;3.00;1.30;;;;;;;;;;5086297;28;20446;-79
2022/09/01 00:06:45;;;;;;;2.10;1.30;;;;;;;;;;5086744;28;20429;-78
2022/09/01 00:09:12;;;;;;;2.28;1.20;;;;;;;;;;5087223;28;20803;-78
2022/09/01 00:11:39;;;;;;;2.78;1.60;;;;;;;;;;5085698;28;20506;-78
2022/09/01 00:14:07;;;;;;;1.73;1.00;;;;;;;;;;5085853;28;20431;-79
2022/09/01 00:16:33;;;;;;;1.20;1.10;;;;;;;;;;5088073;28;20426;-78
2022/09/01 00:19:01;;;;;;;3.00;1.20;;;;;;;;;;5120306;27;20414;-81
2022/09/01 00:21:30;;;;;;;2.17;1.33;;;;;;;;;;5088174;28;20481;-80
2022/09/01 00:23:56;;;;;;;1.38;1.02;;;;;;;;;;5083818;28;20466;-78
2022/09/01 00:26:23;;;;;;;1.30;1.20;;;;;;;;;;5086324;28;20510;-78
2022/09/01 00:28:50;;;;;;;3.03;1.25;;;;;;;;;;5084776;28;20423;-78
2022/09/01 00:31:17;;;;;;;1.17;1.08;;;;;;;;;;5084763;28;20682;-80
2022/09/01 00:33:44;;;;;;;1.10;1.00;;;;;;;;;;5087291;28;20536;-78
2022/09/01 00:36:11;;;;;;;1.70;1.30;;;;;;;;;;5084778;28;20437;-81
2022/09/01 00:38:40;;;;;;;1.92;1.23;;;;;;;;;;5087045;28;20485;-80
2022/09/01 00:41:07;;;;;;;1.88;1.20;;;;;;;;;;5081471;28;20980;-81
2022/09/01 00:43:39;;;;;;;2.65;1.50;;;;;;;;;;5109690;27;20433;-80
2022/09/01 00:46:07;;;;;;;1.33;0.90;;;;;;;;;;5071279;28;20427;-80
2022/09/01 00:48:34;;;;;;;2.07;1.13;;;;;;;;;;5081424;28;20427;-80
2022/09/01 00:51:02;;;;;;;1.10;1.00;;;;;;;;;;5087496;28;20438;-80
2022/09/01 00:53:30;;;;;;;1.75;1.17;;;;;;;;;;5083710;28;20426;-80
2022/09/01 00:55:58;;;;;;;1.40;1.23;;;;;;;;;;5084908;28;20430;-80
2022/09/01 00:58:25;;;;;;;1.60;1.50;;;;;;;;;;5082071;28;20433;-79
2022/09/01 01:00:52;;;;;;;1.20;1.10;;;;;;;;;;5085366;28;20429;-78
2022/09/01 01:03:19;;;;;;;2.75;1.30;;;;;;;;;;5082579;28;20457;-78
2022/09/01 01:05:47;;;;;;;2.30;1.60;;;;;;;;;;5084252;28;20426;-79
2022/09/01 01:08:18;;;;;;;1.90;1.30;;;;;;;;;;5083571;28;20432;-79
2022/09/01 01:10:44;;;;;;;1.40;1.30;;;;;;;;;;5087480;28;20891;-79
2022/09/01 01:13:14;;;;;;;2.63;1.30;;;;;;;;;;5102473;27;20430;-79
2022/09/01 01:15:42;;;;;;;2.72;1.10;;;;;;;;;;5088013;27;20461;-79
2022/09/01 01:18:09;;;;;;;1.13;1.02;;;;;;;;;;5083198;28;20940;-79
2022/09/01 01:23:30;;;;;;;1.60;1.42;;;;;;;;;;5113578;27;20429;-79
2022/09/01 01:26:00;;;;;;;1.60;1.50;;;;;;;;;;5084996;28;20441;-79
2022/09/01 01:28:31;;;;;;;1.60;1.33;;;;;;;;;;5084683;28;20955;-79
2022/09/01 01:31:00;;;;;;;1.65;1.30;;;;;;;;;;5084910;28;20438;-79
2022/09/01 01:33:28;;;;;;;1.88;1.33;;;;;;;;;;5070493;28;20423;-79
2022/09/01 01:35:56;;;;;;;2.53;1.42;;;;;;;;;;5083523;28;20418;-79
2022/09/01 01:38:24;;;;;;;2.10;1.40;;;;;;;;;;5069876;28;20423;-79
2022/09/01 01:40:52;;;;;;;1.50;1.40;;;;;;;;;;5084114;28;20430;-79
2022/09/01 01:43:21;;;;;;;2.50;2.03;;;;;;;;;;5082553;28;20479;-79
2022/09/01 01:45:50;;;;;;;1.50;1.33;;;;;;;;;;5085449;28;20430;-79
2022/09/01 01:48:23;;;;;;;2.13;1.80;;;;;;;;;;5068855;28;20421;-79
2022/09/01 01:50:49;;;;;;;2.47;1.30;;;;;;;;;;5084568;28;20457;-80
2022/09/01 01:53:17;;;;;;;2.33;1.50;;;;;;;;;;5085216;28;20422;-79
2022/09/01 01:55:47;;;;;;;1.40;1.30;;;;;;;;;;5069817;28;20506;-79
2022/09/01 01:58:14;;;;;;;1.92;1.33;;;;;;;;;;5101383;27;20452;-79
2022/09/01 02:00:43;;;;;;;1.40;1.30;;;;;;;;;;5091641;28;20427;-79
2022/09/01 02:03:11;;;;;;;3.38;1.70;;;;;;;;;;5085800;28;20480;-79
2022/09/01 02:05:38;;;;;;;1.60;1.50;;;;;;;;;;5071566;28;20435;-79
2022/09/01 02:08:10;;;;;;;2.70;1.50;;;;;;;;;;5068142;28;20419;-79
2022/09/01 02:10:41;;;;;;;1.70;1.60;;;;;;;;;;5084745;28;20912;-78
2022/09/01 02:13:10;;;;;;;1.73;1.63;;;;;;;;;;5083143;28;20484;-79
2022/09/01 02:15:42;;;;;;;4.47;1.95;;;;;;;;;;5085578;28;20867;-78
2022/09/01 02:18:10;;;;;;;2.20;1.70;;;;;;;;;;5116368;27;20506;-78
2022/09/01 02:20:36;;;;;;;2.55;1.70;;;;;;;;;;5084432;28;20516;-81
2022/09/01 02:23:08;;;;;;;1.77;1.67;;;;;;;;;;5082647;28;20940;-78
2022/09/01 02:25:34;;;;;;;1.50;1.40;;;;;;;;;;5083104;28;20426;-81
2022/09/01 02:28:02;;;;;;;1.90;1.42;;;;;;;;;;5083241;28;20442;-78
2022/09/01 02:30:31;;;;;;;1.60;1.50;;;;;;;;;;5086643;28;20422;-78
2022/09/01 02:32:58;;;;;;;2.57;1.40;;;;;;;;;;5070188;28;20569;-78
2022/09/01 02:35:27;;;;;;;1.70;1.48;;;;;;;;;;5082333;28;20890;-81
2022/09/01 02:37:59;;;;;;;1.98;1.60;;;;;;;;;;5083443;28;20418;-80
2022/09/01 02:40:29;;;;;;;2.53;1.50;;;;;;;;;;5070851;28;20571;-78
2022/09/01 02:42:55;;;;;;;1.70;1.50;;;;;;;;;;5079721;28;20453;-78
2022/09/01 02:45:23;;;;;;;2.20;1.60;;;;;;;;;;5069379;28;20425;-79
2022/09/01 02:47:53;;;;;;;1.70;1.60;;;;;;;;;;5083790;28;20414;-78
2022/09/01 02:50:21;;;;;;;3.92;1.60;;;;;;;;;;5083124;28;20431;-79
2022/09/01 02:52:51;;;;;;;1.95;1.50;;;;;;;;;;5084996;28;20430;-81
2022/09/01 02:55:19;;;;;;;2.97;1.30;;;;;;;;;;5086164;28;20430;-81
2022/09/01 02:57:47;;;;;;;1.90;1.70;;;;;;;;;;5092930;28;20785;-78
2022/09/01 03:00:30;;;;;;;2.15;1.50;;;;;;;;;;5098235;28;20418;-78
2022/09/01 03:02:57;;;;;;;2.05;1.40;;;;;;;;;;5083666;28;20456;-79
2022/09/01 03:05:25;;;;;;;1.80;1.50;;;;;;;;;;5081168;28;20431;-80
2022/09/01 03:07:56;;;;;;;1.70;1.60;;;;;;;;;;5085305;28;20422;-80
2022/09/01 03:10:28;;;;;;;1.70;1.60;;;;;;;;;;5086204;28;20461;-78
2022/09/01 03:12:54;;;;;;;2.55;1.73;;;;;;;;;;5085686;28;20451;-78
2022/09/01 03:15:23;;;;;;;1.60;1.48;;;;;;;;;;5088342;28;20442;-78
2022/09/01 03:17:50;;;;;;;1.58;1.48;;;;;;;;;;5087797;28;20479;-78
2022/09/01 03:20:18;;;;;;;1.98;1.45;;;;;;;;;;5086257;28;20437;-79
2022/09/01 03:22:46;;;;;;;2.83;1.60;;;;;;;;;;5086728;28;20447;-79
2022/09/01 03:25:16;;;;;;;2.67;1.80;;;;;;;;;;5087154;28;20454;-78
2022/09/01 03:27:43;;;;;;;2.60;1.40;;;;;;;;;;5096394;27;20435;-79
2022/09/01 03:30:11;;;;;;;3.20;1.60;;;;;;;;;;5102435;27;20455;-78
2022/09/01 03:32:38;;;;;;;2.30;1.57;;;;;;;;;;5089490;28;20424;-79
2022/09/01 03:35:08;;;;;;;2.00;1.40;;;;;;;;;;5073121;28;20492;-78
2022/09/01 03:37:35;;;;;;;2.22;1.77;;;;;;;;;;5088112;28;20465;-80
2022/09/01 03:40:03;;;;;;;1.60;1.48;;;;;;;;;;5086729;28;20425;-79
2022/09/01 03:42:34;;;;;;;2.00;1.80;;;;;;;;;;5087014;28;20422;-78
2022/09/01 03:45:08;;;;;;;2.47;1.70;;;;;;;;;;5089192;28;20431;-78
2022/09/01 03:47:38;;;;;;;4.00;1.80;;;;;;;;;;5092847;27;20431;-80
2022/09/01 03:50:05;;;;;;;1.70;1.40;;;;;;;;;;5100420;27;20921;-80
2022/09/01 03:52:32;;;;;;;2.97;1.60;;;;;;;;;;5087239;28;20477;-78
2022/09/01 03:54:58;;;;;;;2.10;1.70;;;;;;;;;;5084701;28;20431;-80
2022/09/01 03:57:28;;;;;;;3.00;1.65;;;;;;;;;;5086645;28;20445;-80
2022/09/01 03:59:57;;;;;;;2.87;1.70;;;;;;;;;;5087238;28;20490;-78
2022/09/01 04:02:26;;;;;;;1.77;1.58;;;;;;;;;;5088860;28;20417;-80
2022/09/01 04:04:53;;;;;;;4.73;1.93;;;;;;;;;;5087232;28;20447;-80
2022/09/01 04:07:19;;;;;;;2.90;1.80;;;;;;;;;;5086250;28;20839;-81
2022/09/01 04:09:45;;;;;;;1.60;1.50;;;;;;;;;;5085989;28;20913;-78
2022/09/01 04:12:14;;;;;;;1.40;1.30;;;;;;;;;;5087488;28;20421;-78
2022/09/01 04:14:41;;;;;;;3.27;1.60;;;;;;;;;;5086686;28;20425;-80
2022/09/01 04:19:53;;;;;;;2.77;1.83;;;;;;;;;;5088379;28;20422;-78
2022/09/01 04:22:19;;;;;;;2.72;1.50;;;;;;;;;;5082912;28;20417;-79
2022/09/01 04:24:45;;;;;;;1.77;1.60;;;;;;;;;;5087962;28;20454;-81
2022/09/01 04:27:16;;;;;;;2.78;1.70;;;;;;;;;;5072800;28;20852;-80
2022/09/01 04:29:45;;;;;;;1.50;1.40;;;;;;;;;;5089578;28;20431;-81
2022/09/01 04:32:14;;;;;;;2.65;1.63;;;;;;;;;;5070900;28;20902;-81
2022/09/01 04:34:41;;;;;;;2.05;1.73;;;;;;;;;;5085034;28;20588;-78
2022/09/01 04:37:08;;;;;;;2.90;1.58;;;;;;;;;;5085671;28;20995;-78
2022/09/01 04:39:35;;;;;;;2.63;1.77;;;;;;;;;;5086481;28;20429;-78
2022/09/01 04:42:05;;;;;;;3.03;1.67;;;;;;;;;;5083973;27;20423;-78
2022/09/01 04:44:31;;;;;;;1.92;1.80;;;;;;;;;;5111199;27;20430;-78
2022/09/01 04:47:00;;;;;;;2.03;1.83;;;;;;;;;;5086911;28;20477;-80
2022/09/01 04:49:32;;;;;;;2.73;1.80;;;;;;;;;;5084322;28;20431;-80
2022/09/01 04:52:01;;;;;;;3.92;1.90;;;;;;;;;;5087446;28;20410;-78
2022/09/01 04:54:27;;;;;;;2.10;1.80;;;;;;;;;;5088024;28;20891;-78
2022/09/01 04:56:55;;;;;;;2.25;1.80;;;;;;;;;;5077807;28;20408;-79
2022/09/01 04:59:22;;;;;;;1.90;1.70;;;;;;;;;;5079227;28;20441;-80
2022/09/01 05:01:49;;;;;;;2.42;1.60;;;;;;;;;;5081421;28;20409;-80
2022/09/01 05:04:17;;;;;;;2.70;1.77;;;;;;;;;;5079731;28;20745;-78
2022/09/01 05:06:48;;;;;;;3.08;1.80;;;;;;;;;;5083709;28;20469;-79
2022/09/01 05:09:16;;;;;;;3.13;2.00;;;;;;;;;;5086713;28;21078;-79
2022/09/01 05:11:43;;;;;;;2.97;1.77;;;;;;;;;;5085908;28;20457;-81
2022/09/01 05:14:11;;;;;;;4.10;2.28;;;;;;;;;;5084622;28;20496;-81
2022/09/01 05:16:39;;;;;;;1.98;1.73;;;;;;;;;;5065351;28;20478;-81
2022/09/01 05:19:09;;;;;;;2.25;1.70;;;;;;;;;;5084928;28;20432;-79
2022/09/01 05:21:39;;;;;;;2.55;1.75;;;;;;;;;;5077779;28;20447;-79
2022/09/01 05:24:09;;;;;;;2.20;2.00;;;;;;;;;;5086103;28;20458;-79
2022/09/01 05:26:37;;;;;;;3.45;1.70;;;;;;;;;;5082585;28;20420;-80
2022/09/01 05:29:09;;;;;;;3.72;2.00;;;;;;;;;;5083865;28;20512;-80
2022/09/01 05:31:38;;;;;;;2.70;1.60;;;;;;;;;;5084797;28;20431;-81
2022/09/01 05:34:08;;;;;;;2.65;1.80;;;;;;;;;;5081734;28;20439;-81
2022/09/01 05:36:36;;;;;;;2.15;1.70;;;;;;;;;;5082540;28;20440;-81
2022/09/01 05:39:03;;;;;;;2.10;1.65;;;;;;;;;;5081370;28;20434;-81
2022/09/01 05:41:32;;;;;;;3.60;2.00;;;;;;;;;;5083550;28;20421;-81
2022/09/01 05:43:59;;;;;;;3.28;1.80;;;;;;;;;;5086520;28;20406;-80
2022/09/01 05:46:26;;;;;;;4.22;2.30;;;;;;;;;;5086267;28;20425;-80
2022/09/01 05:48:53;;;;;;;2.15;1.90;;;;;;;;;;5084939;28;20443;-80
2022/09/01 05:51:21;;;;;;;3.10;2.10;;;;;;;;;;5085598;28;20406;-80
2022/09/01 05:53:50;;;;;;;3.03;2.00;;;;;;;;;;5084808;28;20422;-80
2022/09/01 05:56:18;;;;;;;1.90;1.80;;;;;;;;;;5086064;28;20911;-81
2022/09/01 05:58:47;;;;;;;4.00;1.80;;;;;;;;;;5084535;28;20430;-80
2022/09/01 06:01:16;;;;;;;5.82;1.95;;;;;;;;;;5084046;28;20433;-80
2022/09/01 06:03:43;;;;;;;4.57;1.90;;;;;;;;;;5083905;28;20418;-80
2022/09/01 06:06:11;;;;;;;2.78;1.63;;;;;;;;;;5085354;28;20410;-80
2022/09/01 06:08:39;;;;;;;3.65;2.00;;;;;;;;;;5084034;28;20517;-80
2022/09/01 06:11:11;;;;;;;2.33;1.80;;;;;;;;;;5086195;28;20516;-81
2022/09/01 06:13:40;;;;;;;2.40;1.75;;;;;;;;;;5084282;28;20443;-80
2022/09/01 06:16:09;;;;;;;2.70;1.98;;;;;;;;;;5085302;28;20955;-81
2022/09/01 06:18:35;;;;;;;2.75;1.45;;;;;;;;;;5068769;28;20415;-80
2022/09/01 06:21:07;;;;;;;2.63;1.70;;;;;;;;;;5086794;28;20439;-80
2022/09/01 06:23:34;;;;;;;2.83;1.63;;;;;;;;;;5084416;28;20919;-80
2022/09/01 06:26:02;;;;;;;2.75;1.70;;;;;;;;;;5086126;28;20452;-81
2022/09/01 06:28:29;;;;;;;7.57;2.20;;;;;;;;;;5084565;28;20477;-80
2022/09/01 06:30:56;;;;;;;4.40;2.00;;;;;;;;;;5085048;28;20945;-81
2022/09/01 06:33:29;;;;;;;3.40;1.73;;;;;;;;;;5084998;28;20490;-80
2022/09/01 06:35:56;;;;;;;1.70;1.27;;;;;;;;;;5086244;28;20421;-81
2022/09/01 06:38:24;;;;;;;3.07;1.77;;;;;;;;;;5068848;28;20421;-81
2022/09/01 06:40:59;;;;;;;3.72;1.40;;;;;;;;;;5085052;28;20429;-80
2022/09/01 06:43:29;;;;;;;2.77;1.60;;;;;;;;;;5083511;28;20430;-81
2022/09/01 06:45:56;;;;;;;2.40;1.60;;;;;;;;;;5087731;28;20448;-80
2022/09/01 06:48:23;;;;;;;2.10;1.40;;;;;;;;;;5088146;28;20501;-82
2022/09/01 06:50:51;;;;;;;2.30;1.60;;;;;;;;;;5089604;28;20431;-80
2022/09/01 06:53:20;;;;;;;2.80;1.70;;;;;;;;;;5088801;28;20422;-80
2022/09/01 06:55:48;;;;;;;2.08;1.55;;;;;;;;;;5086217;28;20437;-80
2022/09/01 06:58:15;;;;;;;2.60;1.75;;;;;;;;;;5088336;28;20923;-80
2022/09/01 07:00:45;;;;;;;5.00;1.55;;;;;;;;;;5088242;28;20462;-81
2022/09/01 07:03:13;;;;;;;1.70;1.50;;;;;;;;;;5087167;28;20411;-81
2022/09/01 07:05:42;;;;;;;2.50;1.60;;;;;;;;;;5089590;28;20417;-81
2022/09/01 07:08:12;;;;;;;3.90;1.60;;;;;;;;;;5104269;28;20421;-81
2022/09/01 07:10:44;;;;;;;1.90;1.30;;;;;;;;;;5086742;28;20427;-81
2022/09/01 07:13:20;;;;;;;2.90;1.30;;;;;;;;;;5086514;28;21032;-81
2022/09/01 07:15:48;;;;;;;1.95;1.30;;;;;;;;;;5086544;28;20496;-81
2022/09/01 07:18:16;;;;;;;3.40;1.40;;;;;;;;;;5082973;28;20439;-81
2022/09/01 07:20:47;;;;;;;1.83;1.30;;;;;;;;;;5086677;28;20429;-81
2022/09/01 07:23:14;;;;;;;3.63;1.33;;;;;;;;;;5087223;28;20841;-79
2022/09/01 07:25:42;;;;;;;1.60;1.17;;;;;;;;;;5086981;28;20917;-79
2022/09/01 07:28:09;;;;;;;2.67;1.30;;;;;;;;;;5085424;28;20419;-79
2022/09/01 07:30:39;;;;;;;3.60;1.20;;;;;;;;;;5086904;28;20525;-80
2022/09/01 07:33:10;;;;;;;2.00;1.20;;;;;;;;;;5084786;28;20460;-79
2022/09/01 07:35:37;;;;;;;3.80;1.38;;;;;;;;;;5085445;28;20426;-81
2022/09/01 07:38:06;;;;;;;8.75;1.80;;;;;;;;;;5084714;28;20443;-81
2022/09/01 07:40:37;;;;;;;3.28;1.45;;;;;;;;;;5085152;28;20431;-81
2022/09/01 07:43:07;;;;;;;2.67;1.20;;;;;;;;;;5082356;28;20482;-81
2022/09/01 07:45:34;;;;;;;3.35;1.33;;;;;;;;;;5081840;28;20931;-81
2022/09/01 07:48:05;;;;;;;1.75;1.20;;;;;;;;;;5085260;28;20418;-81
2022/09/01 07:50:31;;;;;;;2.22;1.30;;;;;;;;;;5085348;28;20548;-79
2022/09/01 07:52:59;;;;;;;2.80;1.30;;;;;;;;;;5086571;28;20490;-81
2022/09/01 07:55:27;;;;;;;1.38;1.00;;;;;;;;;;5085374;28;20436;-81
2022/09/01 07:57:54;;;;;;;3.20;1.50;;;;;;;;;;5082717;28;20521;-81
2022/09/01 08:00:20;;;;;;;1.85;0.85;;;;;;;;;;5085112;28;21013;-81
2022/09/01 08:02:50;;;;;;;2.58;1.00;;;;;;;;;;5084893;28;20432;-81
2022/09/01 08:05:21;;;;;;;1.90;1.17;;;;;;;;;;5085362;28;20459;-82
2022/09/01 08:07:52;;;;;;;1.60;1.00;;;;;;;;;;5084398;28;20437;-81
2022/09/01 08:10:18;;;;;;;1.98;0.90;;;;;;;;;;5082949;28;20493;-81
2022/09/01 08:12:46;;;;;;;2.20;1.02;;;;;;;;;;5083542;28;20425;-81
2022/09/01 08:15:13;;;;;;;2.10;1.00;;;;;;;;;;5084730;28;20427;-81
2022/09/01 08:17:40;;;;;;;1.25;1.10;;;;;;;;;;5086177;28;20997;-79
2022/09/01 08:20:08;;;;;;;3.13;1.10;;;;;;;;;;5086435;28;20425;-79
2022/09/01 08:22:36;;;;;;;1.40;1.10;;;;;;;;;;5085287;28;20428;-81
2022/09/01 08:25:02;;;;;;;1.80;0.90;;;;;;;;;;5086279;28;20478;-81
2022/09/01 08:27:29;;;;;;;1.98;1.10;;;;;;;;;;5082066;28;20420;-81
2022/09/01 08:29:57;;;;;;;2.15;0.90;;;;;;;;;;5083790;28;20407;-81
2022/09/01 08:32:24;;;;;;;2.60;1.10;;;;;;;;;;5083074;28;20414;-82
2022/09/01 08:34:50;;;;;;;1.00;0.80;;;;;;;;;;5083299;28;20910;-81
2022/09/01 08:37:19;;;;;;;2.70;1.00;;;;;;;;;;5081332;28;20422;-79
2022/09/01 08:39:46;;;;;;;1.40;0.85;;;;;;;;;;5085148;28;20753;-79
2022/09/01 08:42:16;;;;;;;2.40;1.00;;;;;;;;;;5084813;28;20434;-80
2022/09/01 08:44:46;;;;;;;1.47;0.83;;;;;;;;;;5085737;28;20475;-80
2022/09/01 08:47:16;;;;;;;2.70;1.00;;;;;;;;;;5084800;28;20425;-80
2022/09/01 08:49:44;;;;;;;1.73;0.90;;;;;;;;;;5084990;28;20434;-81
2022/09/01 08:52:16;;;;;;;1.35;0.80;;;;;;;;;;5084881;28;20780;-79
2022/09/01 08:54:45;;;;;;;0.82;0.80;;;;;;;;;;5086290;28;20424;-80
2022/09/01 08:57:14;;;;;;;1.85;0.90;;;;;;;;;;5082958;28;20417;-80
2022/09/01 08:59:41;;;;;;;2.20;0.90;;;;;;;;;;5083881;28;20551;-80
2022/09/01 09:02:16;;;;;;;2.45;0.80;;;;;;;;;;5085295;28;20911;-80
2022/09/01 09:04:51;;;;;;;1.10;0.88;;;;;;;;;;5086432;28;20434;-80
2022/09/01 09:07:23;;;;;;;3.10;1.00;;;;;;;;;;5082603;28;20424;-80
2022/09/01 09:09:51;;;;;;;1.58;1.10;;;;;;;;;;5085269;28;20402;-81
2022/09/01 09:12:27;;;;;;;1.10;1.00;;;;;;;;;;5067890;28;20434;-80
2022/09/01 09:14:59;;;;;;;1.58;1.00;;;;;;;;;;5085259;28;20523;-80
2022/09/01 09:17:29;;;;;;;1.47;0.80;;;;;;;;;;5068644;28;20422;-80
2022/09/01 09:19:56;;;;;;;1.90;0.90;;;;;;;;;;5069595;28;20493;-80
2022/09/01 09:22:23;;;;;;;1.30;0.90;;;;;;;;;;5083592;28;20476;-80
2022/09/01 09:24:51;;;;;;;1.80;0.80;;;;;;;;;;5086460;28;20522;-81
2022/09/01 09:27:19;;;;;;;2.03;1.10;;;;;;;;;;5082096;28;20758;-80
2022/09/01 09:29:46;;;;;;;1.48;0.70;;;;;;;;;;5067783;28;20514;-80
2022/09/01 09:32:13;;;;;;;2.65;0.80;;;;;;;;;;5084767;28;20416;-80
2022/09/01 09:34:40;;;;;;;1.40;0.90;;;;;;;;;;5085232;28;20442;-82
2022/09/01 09:37:30;;;;;;;1.33;0.70;;;;;;;;;;5084632;28;20414;-80
2022/09/01 09:40:14;;;;;;;1.90;0.73;;;;;;;;;;5064866;28;20443;-80
2022/09/01 09:42:42;;;;;;;1.55;0.80;;;;;;;;;;5085257;28;20419;-80
2022/09/01 09:45:20;;;;;;;1.00;0.80;;;;;;;;;;5083957;28;20923;-80
2022/09/01 09:47:47;;;;;;;1.50;0.60;;;;;;;;;;5084323;28;20426;-81
2022/09/01 09:50:18;;;;;;;1.40;0.70;;;;;;;;;;5085609;28;20415;-80
2022/09/01 09:52:46;;;;;;;1.65;0.77;;;;;;;;;;5083593;28;20412;-80
2022/09/01 09:55:23;;;;;;;1.38;0.60;;;;;;;;;;5083676;28;20442;-80
2022/09/01 09:57:52;;;;;;;2.40;0.80;;;;;;;;;;5082526;28;20447;-80
2022/09/01 10:00:20;;;;;;;1.10;0.70;;;;;;;;;;5081075;28;20431;-80
2022/09/01 10:02:51;;;;;;;1.70;0.90;;;;;;;;;;5066998;28;20929;-80
2022/09/01 10:05:29;;;;;;;3.35;0.80;;;;;;;;;;5085737;28;20420;-81
2022/09/01 10:07:57;;;;;;;1.90;0.85;;;;;;;;;;5083169;28;20415;-80
2022/09/01 10:10:29;;;;;;;1.30;0.80;;;;;;;;;;5081791;28;20428;-80
2022/09/01 10:12:56;;;;;;;1.00;0.80;;;;;;;;;;5082910;28;20418;-80
2022/09/01 10:15:25;;;;;;;1.00;0.70;;;;;;;;;;5081280;28;20427;-80
2022/09/01 10:17:54;;;;;;;0.90;0.60;;;;;;;;;;5083291;28;20423;-80
2022/09/01 10:20:22;;;;;;;1.90;0.90;;;;;;;;;;5084414;28;20423;-80
2022/09/01 10:22:48;;;;;;;1.95;0.80;;;;;;;;;;5083724;28;20428;-80
2022/09/01 10:25:17;;;;;;;2.10;0.77;;;;;;;;;;5084605;28;20803;-80
2022/09/01 10:27:47;;;;;;;3.20;1.02;;;;;;;;;;5083311;28;20409;-81
2022/09/01 10:30:15;;;;;;;2.78;0.90;;;;;;;;;;5082499;28;20922;-80
2022/09/01 10:32:43;;;;;;;2.20;0.80;;;;;;;;;;5083229;28;20422;-81
2022/09/01 10:35:12;;;;;;;1.90;1.10;;;;;;;;;;5081453;28;20434;-80
2022/09/01 10:37:40;;;;;;;1.58;0.90;;;;;;;;;;5065012;28;20739;-81
2022/09/01 10:40:10;;;;;;;2.40;0.90;;;;;;;;;;5083882;28;20430;-81
2022/09/01 10:42:36;;;;;;;2.20;0.90;;;;;;;;;;5084724;28;20413;-80
2022/09/01 10:45:16;;;;;;;0.77;0.60;;;;;;;;;;5083034;28;20419;-81
2022/09/01 10:47:43;;;;;;;1.00;0.70;;;;;;;;;;5080289;28;20419;-80
2022/09/01 10:50:23;;;;;;;1.10;0.90;;;;;;;;;;5083533;28;20415;-80
2022/09/01 10:53:06;;;;;;;0.93;0.83;;;;;;;;;;5080201;28;20413;-80
2022/09/01 10:55:35;;;;;;;1.10;0.80;;;;;;;;;;5080959;28;20438;-80
2022/09/01 10:58:21;;;;;;;1.40;0.80;;;;;;;;;;5079333;28;20455;-80
2022/09/01 11:01:01;;;;;;;1.13;0.70;;;;;;;;;;5080441;28;20480;-80
2022/09/01 11:03:36;;;;;;;3.05;0.95;;;;;;;;;;5078803;28;20423;-80
2022/09/01 11:06:04;;;;;;;1.10;0.70;;;;;;;;;;5081128;28;20435;-82
2022/09/01 11:08:44;;;;;;;0.98;0.70;;;;;;;;;;5067166;28;20498;-81
2022/09/01 11:11:16;;;;;;;1.90;1.00;;;;;;;;;;5082353;28;20431;-79
2022/09/01 11:13:45;;;;;;;2.13;0.90;;;;;;;;;;5083193;28;20420;-80
2022/09/01 11:16:27;;;;;;;3.97;1.00;;;;;;;;;;5065911;28;20421;-80
2022/09/01 11:18:53;;;;;;;10.85;1.55;;;;;;;;;;5082304;28;20518;-80
2022/09/01 11:21:23;;;;;;;2.70;1.00;;;;;;;;;;5082144;28;20428;-80
2022/09/01 11:23:52;;;;;;;4.38;1.00;;;;;;;;;;5080796;28;20988;-81
2022/09/01 11:26:37;;;;;;;3.80;1.10;;;;;;;;;;5080566;28;20425;-80
2022/09/01 11:29:04;;;;;;;3.60;1.00;;;;;;;;;;5081575;28;20422;-80
2022/09/01 11:31:37;;;;;;;3.90;0.90;;;;;;;;;;5082805;28;20427;-80
2022/09/01 11:34:24;;;;;;;5.07;1.30;;;;;;;;;;5084732;28;20432;-79
2022/09/01 11:36:57;;;;;;;1.20;0.80;;;;;;;;;;5086328;28;20415;-81
2022/09/01 11:39:39;;;;;;;1.20;0.70;;;;;;;;;;5085723;28;20498;-81
2022/09/01 11:42:07;;;;;;;1.23;0.77;;;;;;;;;;5084387;28;20419;-80
2022/09/01 11:44:36;;;;;;;3.05;1.00;;;;;;;;;;5087128;28;20430;-81
2022/09/01 11:47:06;;;;;;;6.90;1.50;;;;;;;;;;5085510;28;20426;-80
2022/09/01 11:49:34;;;;;;;7.07;1.52;;;;;;;;;;5083379;28;20437;-80
2022/09/01 11:52:01;;;;;;;6.57;1.23;;;;;;;;;;5084469;28;20429;-79
2022/09/01 11:54:28;;;;;;;2.00;0.80;;;;;;;;;;5085440;28;21008;-81
2022/09/01 11:56:55;;;;;;;1.15;0.70;;;;;;;;;;5083376;28;20868;-81
2022/09/01 11:59:32;;;;;;;1.63;0.80;;;;;;;;;;5085704;28;20435;-81
2022/09/01 12:01:58;;;;;;;0.60;0.50;;;;;;;;;;5080565;28;20413;-80
2022/09/01 12:04:30;;;;;;;0.93;0.75;;;;;;;;;;5084537;28;20434;-80
2022/09/01 12:06:58;;;;;;;1.77;0.70;;;;;;;;;;5082485;28;20470;-80
2022/09/01 12:09:31;;;;;;;0.95;0.70;;;;;;;;;;5083683;28;20417;-80
2022/09/01 12:11:58;;;;;;;1.85;0.60;;;;;;;;;;5084572;28;20414;-80
2022/09/01 12:14:24;;;;;;;1.98;0.70;;;;;;;;;;5085497;28;20486;-80
2022/09/01 12:16:58;;;;;;;2.10;0.90;;;;;;;;;;5084960;28;20406;-81
2022/09/01 12:19:26;;;;;;;2.50;0.80;;;;;;;;;;5084209;28;20479;-81
2022/09/01 12:21:58;;;;;;;2.35;0.80;;;;;;;;;;5082706;28;20423;-80
2022/09/01 12:24:25;;;;;;;1.15;1.00;;;;;;;;;;5083175;28;20402;-81
2022/09/01 12:26:53;;;;;;;2.38;1.10;;;;;;;;;;5084875;28;20404;-80
2022/09/01 12:29:19;;;;;;;1.80;0.88;;;;;;;;;;5086574;28;20413;-81
2022/09/01 12:31:47;;;;;;;3.15;0.80;;;;;;;;;;5066682;28;20455;-80
2022/09/01 12:34:24;;;;;;;1.00;0.75;;;;;;;;;;5065267;28;20498;-82
2022/09/01 12:37:03;;;;;;;1.30;0.70;;;;;;;;;;5083978;28;20456;-81
2022/09/01 12:39:33;;;;;;;1.50;1.08;;;;;;;;;;5083721;28;20912;-79
2022/09/01 12:42:07;;;;;;;1.00;0.80;;;;;;;;;;5081279;28;20435;-80
2022/09/01 12:44:42;;;;;;;3.00;1.20;;;;;;;;;;5083981;28;20766;-80
2022/09/01 12:47:10;;;;;;;1.70;0.88;;;;;;;;;;5083231;28;20457;-81
2022/09/01 12:49:38;;;;;;;1.05;0.80;;;;;;;;;;5082117;28;20435;-80
2022/09/01 12:52:13;;;;;;;1.00;0.73;;;;;;;;;;5080259;28;20796;-81
2022/09/01 12:54:40;;;;;;;0.90;0.70;;;;;;;;;;5084147;28;20859;-80
2022/09/01 12:57:07;;;;;;;0.75;0.73;;;;;;;;;;5082542;28;20996;-80
2022/09/01 12:59:34;;;;;;;2.13;0.70;;;;;;;;;;5084442;28;21097;-80
2022/09/01 13:02:15;;;;;;;0.93;0.70;;;;;;;;;;5081969;28;20426;-81
2022/09/01 13:04:41;;;;;;;1.10;0.70;;;;;;;;;;5081462;28;20763;-80
2022/09/01 13:07:08;;;;;;;1.30;0.60;;;;;;;;;;5080482;28;20410;-80
2022/09/01 13:09:36;;;;;;;1.30;0.90;;;;;;;;;;5082310;28;20436;-81
2022/09/01 13:12:09;;;;;;;0.70;0.57;;;;;;;;;;5083990;28;20511;-80
2022/09/01 13:14:36;;;;;;;1.08;0.70;;;;;;;;;;5081018;28;21030;-81
2022/09/01 13:17:03;;;;;;;3.72;0.80;;;;;;;;;;5079762;28;20423;-81
2022/09/01 13:19:29;;;;;;;1.50;0.95;;;;;;;;;;5080656;28;20943;-80
2022/09/01 13:21:55;;;;;;;1.60;0.60;;;;;;;;;;5080930;28;20407;-80
2022/09/01 13:24:22;;;;;;;1.67;0.90;;;;;;;;;;5081302;28;20421;-80
2022/09/01 13:26:54;;;;;;;1.63;0.90;;;;;;;;;;5083203;28;20510;-81
2022/09/01 13:29:20;;;;;;;1.85;0.73;;;;;;;;;;5084225;28;20547;-81
2022/09/01 13:31:47;;;;;;;1.60;0.77;;;;;;;;;;5081050;28;20426;-81
2022/09/01 13:34:13;;;;;;;1.77;0.70;;;;;;;;;;5082383;28;21085;-81
2022/09/01 13:36:40;;;;;;;2.33;0.80;;;;;;;;;;5066050;28;20928;-81
2022/09/01 13:39:07;;;;;;;3.00;0.90;;;;;;;;;;5066904;28;20469;-81
2022/09/01 13:41:33;;;;;;;3.50;1.10;;;;;;;;;;5082848;28;20518;-81
2022/09/01 13:44:01;;;;;;;3.80;1.10;;;;;;;;;;5083410;28;20435;-80
2022/09/01 13:46:27;;;;;;;7.10;1.08;;;;;;;;;;5081739;28;20434;-80
2022/09/01 13:48:54;;;;;;;2.63;0.90;;;;;;;;;;5082797;28;20413;-80
2022/09/01 13:51:25;;;;;;;4.70;1.40;;;;;;;;;;5082769;28;20426;-80
2022/09/01 13:53:51;;;;;;;3.35;0.90;;;;;;;;;;5065107;28;20490;-80
2022/09/01 13:56:17;;;;;;;3.70;0.90;;;;;;;;;;5080808;28;20427;-81
2022/09/01 13:58:47;;;;;;;2.42;0.90;;;;;;;;;;5080858;28;20427;-80
2022/09/01 14:01:15;;;;;;;1.60;0.80;;;;;;;;;;5080509;28;20422;-80
2022/09/01 14:03:42;;;;;;;1.00;0.63;;;;;;;;;;5081677;28;20435;-81
2022/09/01 14:06:09;;;;;;;1.60;0.70;;;;;;;;;;5083764;28;20414;-80
2022/09/01 14:08:35;;;;;;;1.50;0.80;;;;;;;;;;5064584;28;20415;-81
2022/09/01 14:11:01;;;;;;;3.00;0.70;;;;;;;;;;5081865;28;20422;-81
2022/09/01 14:13:30;;;;;;;1.30;0.95;;;;;;;;;;5081642;28;20419;-81
2022/09/01 14:15:57;;;;;;;1.50;0.80;;;;;;;;;;5064218;28;20424;-80
2022/09/01 14:18:35;;;;;;;2.08;0.90;;;;;;;;;;5064171;28;20556;-80
2022/09/01 14:21:02;;;;;;;0.95;0.73;;;;;;;;;;5082956;28;21031;-80
2022/09/01 14:23:28;;;;;;;2.90;0.90;;;;;;;;;;5079624;28;20425;-82
2022/09/01 14:25:55;;;;;;;1.70;0.90;;;;;;;;;;5083205;28;20457;-81
2022/09/01 14:28:22;;;;;;;2.80;0.90;;;;;;;;;;5080109;28;20789;-81
2022/09/01 14:30:50;;;;;;;1.00;0.90;;;;;;;;;;5081020;28;20425;-80
2022/09/01 14:33:17;;;;;;;3.20;1.00;;;;;;;;;;5080253;28;20916;-81
2022/09/01 14:35:45;;;;;;;1.55;0.90;;;;;;;;;;5079379;28;20430;-81
2022/09/01 14:38:13;;;;;;;2.70;1.00;;;;;;;;;;5080101;28;20938;-80
2022/09/01 14:40:40;;;;;;;1.95;0.90;;;;;;;;;;5083502;28;20686;-81
2022/09/01 14:43:08;;;;;;;2.90;0.90;;;;;;;;;;5081020;28;20412;-81
2022/09/01 14:45:36;;;;;;;1.50;0.60;;;;;;;;;;5081375;28;20421;-80
2022/09/01 14:48:03;;;;;;;2.28;0.90;;;;;;;;;;5078843;28;20427;-79
2022/09/01 14:50:31;;;;;;;2.10;0.90;;;;;;;;;;5067178;28;20914;-80
2022/09/01 14:52:59;;;;;;;1.40;0.80;;;;;;;;;;5080585;28;20430;-80
2022/09/01 14:55:28;;;;;;;1.42;0.80;;;;;;;;;;5079568;28;20510;-79
2022/09/01 14:57:55;;;;;;;1.40;0.98;;;;;;;;;;5080207;28;20993;-80
2022/09/01 15:00:23;;;;;;;2.67;0.80;;;;;;;;;;5080320;28;20429;-81